sensor_id;sensor_type;location;lat;lon;timestamp;pressure;altitude;pressure_sealevel;temperature;humidity
7832;BME280;3961;42.058;25.586;2023-03-19T00:00:54;63043.41;;;7.39;70.66
7832;BME280;3961;42.058;25.586;2023-03-19T00:03:19;63032.81;;;7.27;70.48
7832;BME280;3961;42.058;25.586;2023-03-19T00:05:52;63038.91;;;7.30;71.17
7832;BME280;3961;42.058;25.586;2023-03-19T00:08:17;63023.25;;;7.21;71.08
7832;BME280;3961;42.058;25.586;2023-03-19T00:10:43;63039.13;;;7.33;70.34
7832;BME280;3961;42.058;25.586;2023-03-19T00:13:09;63024.41;;;7.22;71.36
7832;BME280;3961;42.058;25.586;2023-03-19T00:15:34;63031.06;;;7.26;71.53
7832;BME280;3961;42.058;25.586;2023-03-19T00:18:00;63042.69;;;7.31;71.61
7832;BME280;3961;42.058;25.586;2023-03-19T00:20:26;63044.22;;;7.42;71.21
7832;BME280;3961;42.058;25.586;2023-03-19T00:22:51;63012.91;;;7.12;70.76
7832;BME280;3961;42.058;25.586;2023-03-19T00:25:17;63034.78;;;7.31;71.39
7832;BME280;3961;42.058;25.586;2023-03-19T00:27:42;63020.72;;;7.17;71.48
7832;BME280;3961;42.058;25.586;2023-03-19T00:30:09;63016.59;;;7.18;70.65
7832;BME280;3961;42.058;25.586;2023-03-19T00:32:35;63023.50;;;7.24;69.75
7832;BME280;3961;42.058;25.586;2023-03-19T00:35:01;62993.13;;;6.92;70.34
7832;BME280;3961;42.058;25.586;2023-03-19T00:37:27;63024.41;;;7.22;70.61
7832;BME280;3961;42.058;25.586;2023-03-19T00:39:53;63014.41;;;7.11;71.21
7832;BME280;3961;42.058;25.586;2023-03-19T00:42:19;63018.66;;;7.17;71.49
7832;BME280;3961;42.058;25.586;2023-03-19T00:44:44;62998.78;;;7.02;72.44
7832;BME280;3961;42.058;25.586;2023-03-19T00:47:10;62991.38;;;6.91;72.54
7832;BME280;3961;42.058;25.586;2023-03-19T00:49:35;62995.41;;;6.94;72.77
7832;BME280;3961;42.058;25.586;2023-03-19T00:52:01;62986.22;;;6.86;72.92
7832;BME280;3961;42.058;25.586;2023-03-19T00:54:26;62964.28;;;6.71;72.21
7832;BME280;3961;42.058;25.586;2023-03-19T00:56:52;62980.69;;;6.84;73.47
7832;BME280;3961;42.058;25.586;2023-03-19T00:59:17;62989.31;;;6.91;72.08
7832;BME280;3961;42.058;25.586;2023-03-19T01:01:43;62995.66;;;6.97;72.01
7832;BME280;3961;42.058;25.586;2023-03-19T01:04:08;63004.88;;;7.05;72.15
7832;BME280;3961;42.058;25.586;2023-03-19T01:06:35;63005.78;;;7.03;71.73
7832;BME280;3961;42.058;25.586;2023-03-19T01:09:00;63012.69;;;7.10;71.44
7832;BME280;3961;42.058;25.586;2023-03-19T01:11:26;62984.72;;;6.87;71.91
7832;BME280;3961;42.058;25.586;2023-03-19T01:13:52;62981.28;;;6.84;72.34
7832;BME280;3961;42.058;25.586;2023-03-19T01:16:17;62977.03;;;6.78;72.36
7832;BME280;3961;42.058;25.586;2023-03-19T01:18:43;62994.84;;;6.94;71.47
7832;BME280;3961;42.058;25.586;2023-03-19T01:21:09;62990.25;;;6.90;72.46
7832;BME280;3961;42.058;25.586;2023-03-19T01:23:34;62979.31;;;6.80;72.02
7832;BME280;3961;42.058;25.586;2023-03-19T01:26:00;62977.59;;;6.79;72.06
7832;BME280;3961;42.058;25.586;2023-03-19T01:28:26;62963.56;;;6.64;72.40
7832;BME280;3961;42.058;25.586;2023-03-19T01:30:51;62976.44;;;6.78;73.14
7832;BME280;3961;42.058;25.586;2023-03-19T01:33:17;62970.28;;;6.79;72.25
7832;BME280;3961;42.058;25.586;2023-03-19T01:35:45;62987.59;;;6.90;71.19
7832;BME280;3961;42.058;25.586;2023-03-19T01:38:12;62995.19;;;6.92;71.19
7832;BME280;3961;42.058;25.586;2023-03-19T01:40:43;62997.97;;;6.99;71.25
7832;BME280;3961;42.058;25.586;2023-03-19T01:43:21;62993.69;;;6.93;70.74
7832;BME280;3961;42.058;25.586;2023-03-19T01:45:49;62999.78;;;6.96;70.44
7832;BME280;3961;42.058;25.586;2023-03-19T01:48:22;63004.06;;;7.02;69.51
7832;BME280;3961;42.058;25.586;2023-03-19T01:50:52;62994.25;;;6.93;70.72
7832;BME280;3961;42.058;25.586;2023-03-19T01:53:28;63014.41;;;7.11;70.92
7832;BME280;3961;42.058;25.586;2023-03-19T01:56:02;63021.06;;;7.15;70.61
7832;BME280;3961;42.058;25.586;2023-03-19T01:58:28;63018.09;;;7.17;70.44
7832;BME280;3961;42.058;25.586;2023-03-19T02:00:54;63019.69;;;7.11;69.61
7832;BME280;3961;42.058;25.586;2023-03-19T02:03:22;63027.88;;;7.25;70.13
7832;BME280;3961;42.058;25.586;2023-03-19T02:05:49;62992.78;;;6.94;71.55
7832;BME280;3961;42.058;25.586;2023-03-19T02:08:18;63011.28;;;7.06;70.49
7832;BME280;3961;42.058;25.586;2023-03-19T02:10:46;63018.78;;;7.13;70.29
7832;BME280;3961;42.058;25.586;2023-03-19T02:13:12;63000.94;;;6.97;70.99
7832;BME280;3961;42.058;25.586;2023-03-19T02:15:38;62974.63;;;6.81;70.77
7832;BME280;3961;42.058;25.586;2023-03-19T02:18:04;63000.59;;;6.99;71.17
7832;BME280;3961;42.058;25.586;2023-03-19T02:28:17;63016.72;;;7.13;71.21
7832;BME280;3961;42.058;25.586;2023-03-19T02:30:44;63023.94;;;7.17;70.57
7832;BME280;3961;42.058;25.586;2023-03-19T02:33:16;63022.78;;;7.16;70.40
7832;BME280;3961;42.058;25.586;2023-03-19T02:35:47;63006.00;;;7.06;71.04
7832;BME280;3961;42.058;25.586;2023-03-19T02:38:13;62996.56;;;6.95;71.97
7832;BME280;3961;42.058;25.586;2023-03-19T02:40:48;62975.31;;;6.77;73.27
7832;BME280;3961;42.058;25.586;2023-03-19T02:43:16;62964.59;;;6.69;73.23
7832;BME280;3961;42.058;25.586;2023-03-19T02:45:41;62960.00;;;6.65;74.57
7832;BME280;3961;42.058;25.586;2023-03-19T02:48:07;62969.53;;;6.71;74.46
7832;BME280;3961;42.058;25.586;2023-03-19T02:50:33;62943.91;;;6.51;75.53
7832;BME280;3961;42.058;25.586;2023-03-19T02:52:58;62943.31;;;6.51;75.91
7832;BME280;3961;42.058;25.586;2023-03-19T02:55:24;62954.34;;;6.56;76.60
7832;BME280;3961;42.058;25.586;2023-03-19T02:57:49;62943.22;;;6.55;78.63
7832;BME280;3961;42.058;25.586;2023-03-19T03:00:15;62954.00;;;6.58;78.06
7832;BME280;3961;42.058;25.586;2023-03-19T03:02:45;62951.72;;;6.56;78.83
7832;BME280;3961;42.058;25.586;2023-03-19T03:05:11;62941.03;;;6.49;78.72
7832;BME280;3961;42.058;25.586;2023-03-19T03:07:37;62958.63;;;6.62;79.20
7832;BME280;3961;42.058;25.586;2023-03-19T03:10:05;62955.16;;;6.59;80.55
7832;BME280;3961;42.058;25.586;2023-03-19T03:12:31;62943.09;;;6.48;81.07
7832;BME280;3961;42.058;25.586;2023-03-19T03:14:56;62929.53;;;6.38;80.60
7832;BME280;3961;42.058;25.586;2023-03-19T03:17:22;62933.00;;;6.42;80.36
7832;BME280;3961;42.058;25.586;2023-03-19T03:19:48;62929.88;;;6.36;81.05
7832;BME280;3961;42.058;25.586;2023-03-19T03:22:14;62939.16;;;6.40;80.07
7832;BME280;3961;42.058;25.586;2023-03-19T03:24:39;62954.59;;;6.58;79.85
7832;BME280;3961;42.058;25.586;2023-03-19T03:27:05;62957.13;;;6.63;78.60
7832;BME280;3961;42.058;25.586;2023-03-19T03:29:31;62941.63;;;6.49;79.30
7832;BME280;3961;42.058;25.586;2023-03-19T03:31:56;62937.34;;;6.43;78.86
7832;BME280;3961;42.058;25.586;2023-03-19T03:34:22;62957.72;;;6.63;78.61
7832;BME280;3961;42.058;25.586;2023-03-19T03:36:47;62960.34;;;6.63;78.17
7832;BME280;3961;42.058;25.586;2023-03-19T03:39:13;62951.72;;;6.56;78.25
7832;BME280;3961;42.058;25.586;2023-03-19T03:41:39;62923.78;;;6.33;79.15
7832;BME280;3961;42.058;25.586;2023-03-19T03:44:05;62950.91;;;6.53;78.31
7832;BME280;3961;42.058;25.586;2023-03-19T03:46:30;62953.19;;;6.55;78.57
7832;BME280;3961;42.058;25.586;2023-03-19T03:48:56;62962.06;;;6.65;78.24
7832;BME280;3961;42.058;25.586;2023-03-19T03:51:21;62951.63;;;6.60;77.69
7832;BME280;3961;42.058;25.586;2023-03-19T03:53:47;62959.19;;;6.62;76.87
7832;BME280;3961;42.058;25.586;2023-03-19T03:56:13;62972.44;;;6.74;75.89
7832;BME280;3961;42.058;25.586;2023-03-19T03:58:39;62955.16;;;6.59;76.53
7832;BME280;3961;42.058;25.586;2023-03-19T04:01:05;62943.31;;;6.51;76.09
7832;BME280;3961;42.058;25.586;2023-03-19T04:03:32;62932.09;;;6.43;76.47
7832;BME280;3961;42.058;25.586;2023-03-19T04:05:58;62950.22;;;6.57;74.65
7832;BME280;3961;42.058;25.586;2023-03-19T04:08:23;62956.78;;;6.65;74.23
7832;BME280;3961;42.058;25.586;2023-03-19T04:10:49;62959.66;;;6.67;74.99
7832;BME280;3961;42.058;25.586;2023-03-19T04:13:15;62969.53;;;6.71;74.15
7832;BME280;3961;42.058;25.586;2023-03-19T04:15:42;62967.00;;;6.67;73.39
7832;BME280;3961;42.058;25.586;2023-03-19T04:18:07;62971.19;;;6.78;72.53
7832;BME280;3961;42.058;25.586;2023-03-19T04:20:33;62979.53;;;6.83;72.26
7832;BME280;3961;42.058;25.586;2023-03-19T04:22:59;62954.34;;;6.56;73.05
7832;BME280;3961;42.058;25.586;2023-03-19T04:25:24;62978.75;;;6.80;71.45
7832;BME280;3961;42.058;25.586;2023-03-19T04:27:50;62974.16;;;6.76;70.22
7832;BME280;3961;42.058;25.586;2023-03-19T04:30:17;62977.84;;;6.81;70.75
7832;BME280;3961;42.058;25.586;2023-03-19T04:32:43;62991.97;;;6.91;71.10
7832;BME280;3961;42.058;25.586;2023-03-19T04:35:08;62994.50;;;6.96;69.67
7832;BME280;3961;42.058;25.586;2023-03-19T04:37:34;62991.63;;;6.93;69.75
7832;BME280;3961;42.058;25.586;2023-03-19T04:39:59;62980.69;;;6.84;69.93
7832;BME280;3961;42.058;25.586;2023-03-19T04:42:25;62982.41;;;6.85;69.61
7832;BME280;3961;42.058;25.586;2023-03-19T04:44:50;62991.72;;;6.89;69.36
7832;BME280;3961;42.058;25.586;2023-03-19T04:47:17;62972.44;;;6.74;68.86
7832;BME280;3961;42.058;25.586;2023-03-19T04:49:42;63014.75;;;7.09;68.29
7832;BME280;3961;42.058;25.586;2023-03-19T04:52:08;63017.28;;;7.14;67.29
7832;BME280;3961;42.058;25.586;2023-03-19T04:54:33;63009.13;;;7.11;67.79
7832;BME280;3961;42.058;25.586;2023-03-19T04:56:59;63013.25;;;7.10;67.59
7832;BME280;3961;42.058;25.586;2023-03-19T04:59:25;63011.78;;;7.11;67.79
7832;BME280;3961;42.058;25.586;2023-03-19T05:01:51;63019.00;;;7.15;67.73
7832;BME280;3961;42.058;25.586;2023-03-19T05:04:17;63019.34;;;7.13;67.49
7832;BME280;3961;42.058;25.586;2023-03-19T05:06:43;63041.78;;;7.33;66.68
7832;BME280;3961;42.058;25.586;2023-03-19T05:09:08;63039.47;;;7.31;66.38
7832;BME280;3961;42.058;25.586;2023-03-19T05:11:34;63047.53;;;7.38;65.99
7832;BME280;3961;42.058;25.586;2023-03-19T05:13:59;63009.47;;;7.09;66.52
7832;BME280;3961;42.058;25.586;2023-03-19T05:16:25;63004.38;;;7.00;66.79
7832;BME280;3961;42.058;25.586;2023-03-19T05:18:51;63013.84;;;7.11;66.72
7832;BME280;3961;42.058;25.586;2023-03-19T05:21:17;63014.41;;;7.11;66.67
7832;BME280;3961;42.058;25.586;2023-03-19T05:23:42;63005.19;;;7.03;67.35
7832;BME280;3961;42.058;25.586;2023-03-19T05:26:08;63003.22;;;6.99;67.52
7832;BME280;3961;42.058;25.586;2023-03-19T05:28:34;63019.00;;;7.15;68.20
7832;BME280;3961;42.058;25.586;2023-03-19T05:30:59;63016.34;;;7.15;67.47
7832;BME280;3961;42.058;25.586;2023-03-19T05:33:25;63048.94;;;7.41;66.47
7832;BME280;3961;42.058;25.586;2023-03-19T05:35:51;63038.22;;;7.34;66.21
7832;BME280;3961;42.058;25.586;2023-03-19T05:38:17;63038.81;;;7.35;66.35
7832;BME280;3961;42.058;25.586;2023-03-19T05:40:43;62997.38;;;6.98;67.07
7832;BME280;3961;42.058;25.586;2023-03-19T05:43:09;63036.50;;;7.33;66.18
7832;BME280;3961;42.058;25.586;2023-03-19T05:45:36;63048.00;;;7.43;66.11
7832;BME280;3961;42.058;25.586;2023-03-19T05:48:02;63042.00;;;7.35;66.34
7832;BME280;3961;42.058;25.586;2023-03-19T05:50:28;63091.53;;;7.79;65.28
7832;BME280;3961;42.058;25.586;2023-03-19T05:52:54;63116.84;;;8.01;64.24
7832;BME280;3961;42.058;25.586;2023-03-19T05:55:19;63119.72;;;8.04;64.48
7832;BME280;3961;42.058;25.586;2023-03-19T05:57:45;63135.25;;;8.18;64.42
7832;BME280;3961;42.058;25.586;2023-03-19T06:00:12;63158.56;;;8.40;62.25
7832;BME280;3961;42.058;25.586;2023-03-19T06:02:37;63156.28;;;8.38;61.16
7832;BME280;3961;42.058;25.586;2023-03-19T06:05:04;63131.47;;;8.17;60.41
7832;BME280;3961;42.058;25.586;2023-03-19T06:07:30;63152.56;;;8.33;60.68
7832;BME280;3961;42.058;25.586;2023-03-19T06:09:56;63166.97;;;8.46;60.53
7832;BME280;3961;42.058;25.586;2023-03-19T06:12:21;63152.56;;;8.33;60.47
7832;BME280;3961;42.058;25.586;2023-03-19T06:14:48;63181.94;;;8.59;59.07
7832;BME280;3961;42.058;25.586;2023-03-19T06:17:14;63204.41;;;8.79;57.88
7832;BME280;3961;42.058;25.586;2023-03-19T06:19:39;63207.06;;;8.79;57.72
7832;BME280;3961;42.058;25.586;2023-03-19T06:22:05;63198.91;;;8.76;58.33
7832;BME280;3961;42.058;25.586;2023-03-19T06:24:30;63201.56;;;8.76;57.50
7832;BME280;3961;42.058;25.586;2023-03-19T06:26:56;63193.72;;;8.71;58.33
7832;BME280;3961;42.058;25.586;2023-03-19T06:29:21;63208.69;;;8.85;57.70
7832;BME280;3961;42.058;25.586;2023-03-19T06:31:47;63229.78;;;9.01;56.81
7832;BME280;3961;42.058;25.586;2023-03-19T06:34:12;63242.47;;;9.12;57.57
7832;BME280;3961;42.058;25.586;2023-03-19T06:36:38;63252.28;;;9.21;56.38
7832;BME280;3961;42.058;25.586;2023-03-19T06:39:03;63251.34;;;9.22;56.26
7832;BME280;3961;42.058;25.586;2023-03-19T06:41:29;63249.06;;;9.20;56.35
7832;BME280;3961;42.058;25.586;2023-03-19T06:43:54;63268.09;;;9.37;56.02
7832;BME280;3961;42.058;25.586;2023-03-19T06:46:20;63283.66;;;9.51;55.56
7832;BME280;3961;42.058;25.586;2023-03-19T06:48:45;63304.19;;;9.66;55.13
7832;BME280;3961;42.058;25.586;2023-03-19T06:51:11;63318.94;;;9.77;54.78
7832;BME280;3961;42.058;25.586;2023-03-19T06:53:36;63288.59;;;9.53;53.92
7832;BME280;3961;42.058;25.586;2023-03-19T06:56:02;63303.84;;;9.68;53.85
7832;BME280;3961;42.058;25.586;2023-03-19T06:58:28;63326.91;;;9.89;53.99
7832;BME280;3961;42.058;25.586;2023-03-19T07:00:54;63311.13;;;9.72;54.34
7832;BME280;3961;42.058;25.586;2023-03-19T07:03:20;63345.16;;;10.02;53.76
7832;BME280;3961;42.058;25.586;2023-03-19T07:05:49;63346.31;;;10.03;53.43
7832;BME280;3961;42.058;25.586;2023-03-19T07:08:14;63346.78;;;10.08;52.70
7832;BME280;3961;42.058;25.586;2023-03-19T07:10:40;63357.25;;;10.13;53.24
7832;BME280;3961;42.058;25.586;2023-03-19T07:13:06;63352.31;;;10.11;52.81
7832;BME280;3961;42.058;25.586;2023-03-19T07:15:32;63390.19;;;10.42;52.39
7832;BME280;3961;42.058;25.586;2023-03-19T07:17:57;63409.84;;;10.59;51.50
7832;BME280;3961;42.058;25.586;2023-03-19T07:20:23;63410.75;;;10.58;51.10
7832;BME280;3961;42.058;25.586;2023-03-19T07:22:52;63409.59;;;10.57;51.23
7832;BME280;3961;42.058;25.586;2023-03-19T07:25:17;63415.63;;;10.64;51.60
7832;BME280;3961;42.058;25.586;2023-03-19T07:27:43;63416.44;;;10.67;51.29
7832;BME280;3961;42.058;25.586;2023-03-19T07:30:10;63443.34;;;10.89;51.45
7832;BME280;3961;42.058;25.586;2023-03-19T07:32:36;63428.88;;;10.76;51.98
7832;BME280;3961;42.058;25.586;2023-03-19T07:35:06;63447.03;;;10.94;50.78
7832;BME280;3961;42.058;25.586;2023-03-19T07:37:32;63464.94;;;11.10;50.07
7832;BME280;3961;42.058;25.586;2023-03-19T07:39:58;63457.44;;;11.03;50.34
7832;BME280;3961;42.058;25.586;2023-03-19T07:42:24;63473.97;;;11.16;50.03
7832;BME280;3961;42.058;25.586;2023-03-19T07:44:49;63498.59;;;11.35;50.08
7832;BME280;3961;42.058;25.586;2023-03-19T07:47:15;63499.16;;;11.35;49.31
7832;BME280;3961;42.058;25.586;2023-03-19T07:49:40;63508.63;;;11.46;48.84
7832;BME280;3961;42.058;25.586;2023-03-19T07:52:06;63518.13;;;11.57;48.58
7832;BME280;3961;42.058;25.586;2023-03-19T07:54:32;63545.66;;;11.78;48.75
7832;BME280;3961;42.058;25.586;2023-03-19T07:56:57;63563.25;;;11.96;47.49
7832;BME280;3961;42.058;25.586;2023-03-19T07:59:23;63595.41;;;12.22;47.58
7832;BME280;3961;42.058;25.586;2023-03-19T08:01:48;63617.41;;;12.41;46.80
7832;BME280;3961;42.058;25.586;2023-03-19T08:04:14;63640.56;;;12.62;46.74
7832;BME280;3961;42.058;25.586;2023-03-19T08:06:39;63657.00;;;12.78;45.27
7832;BME280;3961;42.058;25.586;2023-03-19T08:09:05;63693.56;;;13.06;44.91
7832;BME280;3961;42.058;25.586;2023-03-19T08:11:31;63714.94;;;13.29;43.59
7832;BME280;3961;42.058;25.586;2023-03-19T08:13:56;63744.81;;;13.53;43.79
7832;BME280;3961;42.058;25.586;2023-03-19T08:16:22;63769.72;;;13.75;42.43
7832;BME280;3961;42.058;25.586;2023-03-19T08:18:47;63804.50;;;14.05;43.04
7832;BME280;3961;42.058;25.586;2023-03-19T08:21:13;63835.81;;;14.33;42.20
7832;BME280;3961;42.058;25.586;2023-03-19T08:23:38;63803.22;;;14.09;41.21
7832;BME280;3961;42.058;25.586;2023-03-19T08:26:04;63855.81;;;14.53;41.03
7832;BME280;3961;42.058;25.586;2023-03-19T08:28:30;63900.00;;;14.87;40.03
7832;BME280;3961;42.058;25.586;2023-03-19T08:30:56;63924.03;;;15.10;40.75
7832;BME280;3961;42.058;25.586;2023-03-19T08:33:22;63913.00;;;15.00;40.46
7832;BME280;3961;42.058;25.586;2023-03-19T08:35:47;63932.97;;;15.20;40.54
7832;BME280;3961;42.058;25.586;2023-03-19T08:38:13;63977.81;;;15.55;40.16
7832;BME280;3961;42.058;25.586;2023-03-19T08:40:38;63973.16;;;15.51;39.75
7832;BME280;3961;42.058;25.586;2023-03-19T08:43:04;63972.22;;;15.52;41.71
7832;BME280;3961;42.058;25.586;2023-03-19T08:45:31;63969.91;;;15.50;40.83
7832;BME280;3961;42.058;25.586;2023-03-19T08:47:56;63989.06;;;15.67;40.08
7832;BME280;3961;42.058;25.586;2023-03-19T08:50:22;63997.22;;;15.74;39.61
7832;BME280;3961;42.058;25.586;2023-03-19T08:52:48;64005.59;;;15.84;40.29
7832;BME280;3961;42.058;25.586;2023-03-19T08:55:14;63994.66;;;15.69;40.74
7832;BME280;3961;42.058;25.586;2023-03-19T08:57:40;63958.06;;;15.37;42.68
7832;BME280;3961;42.058;25.586;2023-03-19T09:00:06;63989.66;;;15.67;41.21
7832;BME280;3961;42.058;25.586;2023-03-19T09:02:32;63991.16;;;15.66;41.03
7832;BME280;3961;42.058;25.586;2023-03-19T09:04:58;64003.72;;;15.75;42.47
7832;BME280;3961;42.058;25.586;2023-03-19T09:07:23;64016.97;;;15.91;41.89
7832;BME280;3961;42.058;25.586;2023-03-19T09:09:48;64049.84;;;16.18;41.56
7832;BME280;3961;42.058;25.586;2023-03-19T09:12:15;64096.00;;;16.60;40.21
7832;BME280;3961;42.058;25.586;2023-03-19T09:14:42;64126.97;;;16.83;41.96
7832;BME280;3961;42.058;25.586;2023-03-19T09:17:08;64070.78;;;16.36;42.08
7832;BME280;3961;42.058;25.586;2023-03-19T09:19:34;64125.09;;;16.86;41.16
7832;BME280;3961;42.058;25.586;2023-03-19T09:22:02;64145.81;;;17.01;41.11
7832;BME280;3961;42.058;25.586;2023-03-19T09:24:27;64132.06;;;16.92;40.28
7832;BME280;3961;42.058;25.586;2023-03-19T09:26:53;64148.34;;;17.06;40.85
7832;BME280;3961;42.058;25.586;2023-03-19T09:29:18;64145.81;;;17.01;40.48
7832;BME280;3961;42.058;25.586;2023-03-19T09:31:44;64138.94;;;16.91;41.64
7832;BME280;3961;42.058;25.586;2023-03-19T09:34:11;64125.09;;;16.86;40.79
7832;BME280;3961;42.058;25.586;2023-03-19T09:36:38;64141.72;;;16.98;40.77
7832;BME280;3961;42.058;25.586;2023-03-19T09:39:05;64134.16;;;16.91;41.09
7832;BME280;3961;42.058;25.586;2023-03-19T09:44:28;64155.00;;;17.14;41.22
7832;BME280;3961;42.058;25.586;2023-03-19T09:49:38;64234.50;;;17.81;41.04
7832;BME280;3961;42.058;25.586;2023-03-19T09:54:50;64218.56;;;17.65;40.34
7832;BME280;3961;42.058;25.586;2023-03-19T09:57:19;64222.63;;;17.68;40.47
7832;BME280;3961;42.058;25.586;2023-03-19T09:59:45;64221.69;;;17.70;41.83
7832;BME280;3961;42.058;25.586;2023-03-19T10:05:02;64218.78;;;17.67;41.14
7832;BME280;3961;42.058;25.586;2023-03-19T10:15:51;64258.50;;;17.97;40.55
7832;BME280;3961;42.058;25.586;2023-03-19T10:18:26;64249.03;;;17.94;40.70
7832;BME280;3961;42.058;25.586;2023-03-19T10:26:08;64267.69;;;18.10;41.87
7832;BME280;3961;42.058;25.586;2023-03-19T10:28:35;64292.13;;;18.31;41.06
7832;BME280;3961;42.058;25.586;2023-03-19T10:36:43;64326.19;;;18.63;41.14
7832;BME280;3961;42.058;25.586;2023-03-19T10:39:08;64340.66;;;18.69;41.80
7832;BME280;3961;42.058;25.586;2023-03-19T10:41:59;64354.66;;;18.81;40.64
7832;BME280;3961;42.058;25.586;2023-03-19T10:44:34;64323.00;;;18.58;39.53
7832;BME280;3961;42.058;25.586;2023-03-19T10:47:12;64373.16;;;19.02;41.38
7832;BME280;3961;42.058;25.586;2023-03-19T10:49:39;64339.59;;;18.75;39.42
7832;BME280;3961;42.058;25.586;2023-03-19T10:52:12;64337.16;;;18.66;39.65
7832;BME280;3961;42.058;25.586;2023-03-19T10:54:42;64305.91;;;18.41;40.49
7832;BME280;3961;42.058;25.586;2023-03-19T10:57:25;64306.13;;;18.43;40.95
7832;BME280;3961;42.058;25.586;2023-03-19T10:59:51;64339.34;;;18.72;40.05
7832;BME280;3961;42.058;25.586;2023-03-19T11:04:44;64262.22;;;18.03;40.79
7832;BME280;3961;42.058;25.586;2023-03-19T11:07:13;64253.72;;;17.98;41.20
7832;BME280;3961;42.058;25.586;2023-03-19T11:09:41;64263.97;;;18.04;42.57
7832;BME280;3961;42.058;25.586;2023-03-19T11:12:20;64296.00;;;18.32;42.82
7832;BME280;3961;42.058;25.586;2023-03-19T11:14:56;64302.84;;;18.43;41.12
7832;BME280;3961;42.058;25.586;2023-03-19T11:19:53;64352.97;;;18.87;41.45
7832;BME280;3961;42.058;25.586;2023-03-19T11:22:35;64394.88;;;19.16;41.06
7832;BME280;3961;42.058;25.586;2023-03-19T11:25:17;64414.31;;;19.35;40.74
7832;BME280;3961;42.058;25.586;2023-03-19T11:27:45;64384.00;;;19.09;40.82
7832;BME280;3961;42.058;25.586;2023-03-19T11:30:21;64419.81;;;19.42;39.75
7832;BME280;3961;42.058;25.586;2023-03-19T11:33:16;64412.44;;;19.38;41.42
7832;BME280;3961;42.058;25.586;2023-03-19T11:35:50;64433.56;;;19.52;40.91
7832;BME280;3961;42.058;25.586;2023-03-19T11:38:39;64457.88;;;19.71;40.42
7832;BME280;3961;42.058;25.586;2023-03-19T11:44:00;64282.59;;;18.21;40.93
7832;BME280;3961;42.058;25.586;2023-03-19T11:52:00;64220.53;;;17.69;41.68
7832;BME280;3961;42.058;25.586;2023-03-19T11:54:32;64245.69;;;17.86;42.78
7832;BME280;3961;42.058;25.586;2023-03-19T12:02:46;64304.97;;;18.42;40.41
7832;BME280;3961;42.058;25.586;2023-03-19T12:05:28;64377.00;;;19.03;40.91
7832;BME280;3961;42.058;25.586;2023-03-19T12:10:49;64283.41;;;18.24;40.86
7832;BME280;3961;42.058;25.586;2023-03-19T12:13:30;64354.88;;;18.84;40.21
7832;BME280;3961;42.058;25.586;2023-03-19T12:16:23;64393.69;;;19.15;39.26
7832;BME280;3961;42.058;25.586;2023-03-19T12:24:30;64450.50;;;19.67;38.63
7832;BME280;3961;42.058;25.586;2023-03-19T12:34:47;64282.81;;;18.23;41.35
7832;BME280;3961;42.058;25.586;2023-03-19T12:37:22;64321.84;;;18.57;40.14
7832;BME280;3961;42.058;25.586;2023-03-19T12:42:47;64189.53;;;17.46;41.85
7832;BME280;3961;42.058;25.586;2023-03-19T12:45:25;64228.69;;;17.76;42.14
7832;BME280;3961;42.058;25.586;2023-03-19T12:48:01;64234.50;;;17.81;41.96
7832;BME280;3961;42.058;25.586;2023-03-19T12:50:30;64250.78;;;17.95;41.50
7832;BME280;3961;42.058;25.586;2023-03-19T12:52:59;64316.41;;;18.50;40.99
7832;BME280;3961;42.058;25.586;2023-03-19T12:55:34;64337.38;;;18.68;40.06
7832;BME280;3961;42.058;25.586;2023-03-19T13:01:23;64346.72;;;18.76;40.14
7832;BME280;3961;42.058;25.586;2023-03-19T13:06:33;64353.72;;;18.83;40.58
7832;BME280;3961;42.058;25.586;2023-03-19T13:09:12;64263.97;;;18.04;40.95
7832;BME280;3961;42.058;25.586;2023-03-19T13:12:09;64344.97;;;18.75;40.48
7832;BME280;3961;42.058;25.586;2023-03-19T13:15:25;64383.88;;;19.13;40.93
7832;BME280;3961;42.058;25.586;2023-03-19T13:21:03;64277.94;;;18.17;40.97
7832;BME280;3961;42.058;25.586;2023-03-19T13:23:37;64264.69;;;18.00;41.17
7832;BME280;3961;42.058;25.586;2023-03-19T13:26:09;64309.53;;;18.39;41.42
7832;BME280;3961;42.058;25.586;2023-03-19T13:28:52;64319.28;;;18.53;41.00
7832;BME280;3961;42.058;25.586;2023-03-19T13:31:20;64341.69;;;18.74;40.13
7832;BME280;3961;42.058;25.586;2023-03-19T13:34:03;64355.06;;;18.86;39.95
7832;BME280;3961;42.058;25.586;2023-03-19T13:36:37;64389.09;;;19.18;39.92
7832;BME280;3961;42.058;25.586;2023-03-19T13:39:14;64442.09;;;19.57;39.32
7832;BME280;3961;42.058;25.586;2023-03-19T13:46:55;64483.41;;;19.98;39.06
7832;BME280;3961;42.058;25.586;2023-03-19T13:49:33;64475.44;;;19.93;39.05
7832;BME280;3961;42.058;25.586;2023-03-19T13:52:09;64494.63;;;20.03;38.66
7832;BME280;3961;42.058;25.586;2023-03-19T13:54:51;64357.75;;;18.86;40.86
7832;BME280;3961;42.058;25.586;2023-03-19T13:57:19;64356.97;;;18.83;41.04
7832;BME280;3961;42.058;25.586;2023-03-19T13:59:48;64323.38;;;18.56;42.17
7832;BME280;3961;42.058;25.586;2023-03-19T14:04:51;64276.44;;;18.18;42.76
7832;BME280;3961;42.058;25.586;2023-03-19T14:07:23;64228.44;;;17.73;43.77
7832;BME280;3961;42.058;25.586;2023-03-19T14:12:33;64275.97;;;18.12;43.05
7832;BME280;3961;42.058;25.586;2023-03-19T14:17:35;64275.16;;;18.09;43.55
7832;BME280;3961;42.058;25.586;2023-03-19T14:25:58;64270.97;;;18.10;44.29
7832;BME280;3961;42.058;25.586;2023-03-19T14:28:34;64285.50;;;18.23;44.24
7832;BME280;3961;42.058;25.586;2023-03-19T14:31:02;64277.59;;;18.19;44.24
7832;BME280;3961;42.058;25.586;2023-03-19T14:34:06;64239.06;;;17.78;44.83
7832;BME280;3961;42.058;25.586;2023-03-19T14:36:29;64258.13;;;17.99;44.72
7832;BME280;3961;42.058;25.586;2023-03-19T14:39:07;64272.94;;;18.15;44.08
7832;BME280;3961;42.058;25.586;2023-03-19T14:41:39;64240.34;;;17.86;44.52
7832;BME280;3961;42.058;25.586;2023-03-19T14:53:01;64323.00;;;18.58;43.63
7832;BME280;3961;42.058;25.586;2023-03-19T14:55:36;64319.50;;;18.55;43.68
7832;BME280;3961;42.058;25.586;2023-03-19T14:58:03;64345.19;;;18.77;43.75
7832;BME280;3961;42.058;25.586;2023-03-19T15:00:41;64351.00;;;18.83;43.43
7832;BME280;3961;42.058;25.586;2023-03-19T15:03:20;64293.31;;;18.32;43.70
7832;BME280;3961;42.058;25.586;2023-03-19T15:05:46;64314.28;;;18.51;43.94
7832;BME280;3961;42.058;25.586;2023-03-19T15:08:19;64321.03;;;18.54;43.56
7832;BME280;3961;42.058;25.586;2023-03-19T15:19:15;64297.75;;;18.34;44.62
7832;BME280;3961;42.058;25.586;2023-03-19T15:21:42;64291.56;;;18.31;44.49
7832;BME280;3961;42.058;25.586;2023-03-19T15:24:13;64297.38;;;18.36;44.28